sensor_id;sensor_type;location;lat;lon;timestamp;temperature;humidity
74376;HTU21D;62812;55.188;61.302;2024-03-08T00:02:05;-9.30;61.08
74376;HTU21D;62812;55.188;61.302;2024-03-08T00:04:33;-9.30;60.51
74376;HTU21D;62812;55.188;61.302;2024-03-08T00:07:00;-9.29;60.57
74376;HTU21D;62812;55.188;61.302;2024-03-08T00:09:26;-9.29;60.71
74376;HTU21D;62812;55.188;61.302;2024-03-08T00:11:53;-9.29;61.01
74376;HTU21D;62812;55.188;61.302;2024-03-08T00:14:19;-9.29;60.47
74376;HTU21D;62812;55.188;61.302;2024-03-08T00:16:46;-9.29;60.38
74376;HTU21D;62812;55.188;61.302;2024-03-08T00:19:12;-9.34;60.99
74376;HTU21D;62812;55.188;61.302;2024-03-08T00:21:41;-9.36;60.79
74376;HTU21D;62812;55.188;61.302;2024-03-08T00:24:08;-9.38;60.60
74376;HTU21D;62812;55.188;61.302;2024-03-08T00:26:34;-9.40;60.63
74376;HTU21D;62812;55.188;61.302;2024-03-08T00:29:01;-9.42;61.15
74376;HTU21D;62812;55.188;61.302;2024-03-08T00:31:27;-9.42;60.98
74376;HTU21D;62812;55.188;61.302;2024-03-08T00:33:54;-9.42;61.32
74376;HTU21D;62812;55.188;61.302;2024-03-08T00:36:20;-9.44;61.59
74376;HTU21D;62812;55.188;61.302;2024-03-08T00:38:48;-9.45;61.51
74376;HTU21D;62812;55.188;61.302;2024-03-08T00:41:15;-9.43;61.44
74376;HTU21D;62812;55.188;61.302;2024-03-08T00:43:41;-9.42;61.05
74376;HTU21D;62812;55.188;61.302;2024-03-08T00:46:08;-9.40;60.78
74376;HTU21D;62812;55.188;61.302;2024-03-08T00:48:34;-9.38;60.92
74376;HTU21D;62812;55.188;61.302;2024-03-08T00:51:04;-9.37;60.90
74376;HTU21D;62812;55.188;61.302;2024-03-08T00:53:30;-9.39;61.23
74376;HTU21D;62812;55.188;61.302;2024-03-08T00:55:58;-9.40;61.41
74376;HTU21D;62812;55.188;61.302;2024-03-08T00:58:25;-9.42;61.13
74376;HTU21D;62812;55.188;61.302;2024-03-08T01:00:51;-9.43;61.09
74376;HTU21D;62812;55.188;61.302;2024-03-08T01:03:18;-9.46;60.88
74376;HTU21D;62812;55.188;61.302;2024-03-08T01:05:44;-9.48;61.25
74376;HTU21D;62812;55.188;61.302;2024-03-08T01:08:12;-9.52;61.18
74376;HTU21D;62812;55.188;61.302;2024-03-08T01:10:38;-9.48;61.02
74376;HTU21D;62812;55.188;61.302;2024-03-08T01:13:06;-9.43;60.99
74376;HTU21D;62812;55.188;61.302;2024-03-08T01:15:33;-9.39;61.06
74376;HTU21D;62812;55.188;61.302;2024-03-08T01:18:00;-9.41;61.21
74376;HTU21D;62812;55.188;61.302;2024-03-08T01:20:27;-9.44;61.53
74376;HTU21D;62812;55.188;61.302;2024-03-08T01:22:53;-9.45;61.31
74376;HTU21D;62812;55.188;61.302;2024-03-08T01:25:20;-9.52;61.45
74376;HTU21D;62812;55.188;61.302;2024-03-08T01:27:47;-9.54;61.55
74376;HTU21D;62812;55.188;61.302;2024-03-08T01:30:15;-9.59;61.63
74376;HTU21D;62812;55.188;61.302;2024-03-08T01:32:43;-9.62;61.89
74376;HTU21D;62812;55.188;61.302;2024-03-08T01:35:10;-9.67;61.99
74376;HTU21D;62812;55.188;61.302;2024-03-08T01:37:36;-9.68;61.76
74376;HTU21D;62812;55.188;61.302;2024-03-08T01:40:03;-9.70;61.73
74376;HTU21D;62812;55.188;61.302;2024-03-08T01:42:30;-9.73;62.01
74376;HTU21D;62812;55.188;61.302;2024-03-08T01:44:56;-9.74;62.05
74376;HTU21D;62812;55.188;61.302;2024-03-08T01:47:24;-9.75;62.11
74376;HTU21D;62812;55.188;61.302;2024-03-08T01:49:52;-9.75;61.82
74376;HTU21D;62812;55.188;61.302;2024-03-08T01:52:19;-9.73;62.34
74376;HTU21D;62812;55.188;61.302;2024-03-08T01:54:47;-9.85;62.69
74376;HTU21D;62812;55.188;61.302;2024-03-08T01:57:13;-9.99;62.77
74376;HTU21D;62812;55.188;61.302;2024-03-08T01:59:41;-10.06;63.05
74376;HTU21D;62812;55.188;61.302;2024-03-08T02:02:11;-10.10;63.33
74376;HTU21D;62812;55.188;61.302;2024-03-08T02:04:43;-10.17;63.79
74376;HTU21D;62812;55.188;61.302;2024-03-08T02:07:09;-10.26;64.14
74376;HTU21D;62812;55.188;61.302;2024-03-08T02:09:35;-10.27;64.64
74376;HTU21D;62812;55.188;61.302;2024-03-08T02:12:02;-10.28;64.46
74376;HTU21D;62812;55.188;61.302;2024-03-08T02:14:29;-10.22;64.23
74376;HTU21D;62812;55.188;61.302;2024-03-08T02:17:00;-10.17;64.17
74376;HTU21D;62812;55.188;61.302;2024-03-08T02:19:27;-10.13;63.96
74376;HTU21D;62812;55.188;61.302;2024-03-08T02:21:55;-10.06;63.28
74376;HTU21D;62812;55.188;61.302;2024-03-08T02:24:22;-9.99;62.73
74376;HTU21D;62812;55.188;61.302;2024-03-08T02:26:50;-9.91;62.57
74376;HTU21D;62812;55.188;61.302;2024-03-08T02:29:17;-9.85;62.28
74376;HTU21D;62812;55.188;61.302;2024-03-08T02:31:44;-9.83;62.43
74376;HTU21D;62812;55.188;61.302;2024-03-08T02:34:11;-9.81;62.22
74376;HTU21D;62812;55.188;61.302;2024-03-08T02:36:38;-9.76;62.32
74376;HTU21D;62812;55.188;61.302;2024-03-08T02:39:06;-9.73;62.23
74376;HTU21D;62812;55.188;61.302;2024-03-08T02:41:32;-9.70;62.48
74376;HTU21D;62812;55.188;61.302;2024-03-08T02:43:59;-9.66;62.65
74376;HTU21D;62812;55.188;61.302;2024-03-08T02:46:26;-9.63;62.10
74376;HTU21D;62812;55.188;61.302;2024-03-08T02:48:52;-9.63;62.24
74376;HTU21D;62812;55.188;61.302;2024-03-08T02:51:18;-9.63;62.05
74376;HTU21D;62812;55.188;61.302;2024-03-08T02:53:46;-9.62;61.80
74376;HTU21D;62812;55.188;61.302;2024-03-08T02:56:16;-9.63;61.98
74376;HTU21D;62812;55.188;61.302;2024-03-08T02:58:43;-9.66;62.03
74376;HTU21D;62812;55.188;61.302;2024-03-08T03:01:09;-9.68;62.08
74376;HTU21D;62812;55.188;61.302;2024-03-08T03:03:38;-9.63;62.31
74376;HTU21D;62812;55.188;61.302;2024-03-08T03:06:05;-9.61;62.07
74376;HTU21D;62812;55.188;61.302;2024-03-08T03:08:33;-9.58;62.12
74376;HTU21D;62812;55.188;61.302;2024-03-08T03:10:59;-9.56;61.43
74376;HTU21D;62812;55.188;61.302;2024-03-08T03:13:27;-9.51;61.54
74376;HTU21D;62812;55.188;61.302;2024-03-08T03:15:55;-9.46;61.21
74376;HTU21D;62812;55.188;61.302;2024-03-08T03:18:25;-9.39;61.76
74376;HTU21D;62812;55.188;61.302;2024-03-08T03:20:53;-9.38;61.99
74376;HTU21D;62812;55.188;61.302;2024-03-08T03:23:19;-9.32;62.06
74376;HTU21D;62812;55.188;61.302;2024-03-08T03:25:47;-9.27;61.41
74376;HTU21D;62812;55.188;61.302;2024-03-08T03:28:13;-9.25;60.80
74376;HTU21D;62812;55.188;61.302;2024-03-08T03:30:46;-9.16;61.11
74376;HTU21D;62812;55.188;61.302;2024-03-08T03:33:12;-9.11;60.64
74376;HTU21D;62812;55.188;61.302;2024-03-08T03:35:41;-9.07;60.83
74376;HTU21D;62812;55.188;61.302;2024-03-08T03:38:09;-9.00;61.02
74376;HTU21D;62812;55.188;61.302;2024-03-08T03:40:36;-8.94;60.22
74376;HTU21D;62812;55.188;61.302;2024-03-08T03:43:03;-8.83;60.31
74376;HTU21D;62812;55.188;61.302;2024-03-08T03:45:30;-8.79;59.88
74376;HTU21D;62812;55.188;61.302;2024-03-08T03:48:01;-8.74;59.98
74376;HTU21D;62812;55.188;61.302;2024-03-08T03:50:28;-8.67;60.20
74376;HTU21D;62812;55.188;61.302;2024-03-08T03:52:55;-8.60;59.91
74376;HTU21D;62812;55.188;61.302;2024-03-08T03:55:22;-8.54;59.70
74376;HTU21D;62812;55.188;61.302;2024-03-08T03:57:48;-8.49;59.16
74376;HTU21D;62812;55.188;61.302;2024-03-08T04:00:15;-8.45;59.35
74376;HTU21D;62812;55.188;61.302;2024-03-08T04:02:42;-8.40;59.70
74376;HTU21D;62812;55.188;61.302;2024-03-08T04:05:11;-8.36;60.06
74376;HTU21D;62812;55.188;61.302;2024-03-08T04:07:38;-8.25;59.27
74376;HTU21D;62812;55.188;61.302;2024-03-08T04:10:06;-8.14;59.30
74376;HTU21D;62812;55.188;61.302;2024-03-08T04:12:33;-8.05;58.52
74376;HTU21D;62812;55.188;61.302;2024-03-08T04:14:59;-7.87;59.18
74376;HTU21D;62812;55.188;61.302;2024-03-08T04:17:26;-7.74;58.52
74376;HTU21D;62812;55.188;61.302;2024-03-08T04:19:53;-7.62;58.89
74376;HTU21D;62812;55.188;61.302;2024-03-08T04:22:21;-7.42;58.51
74376;HTU21D;62812;55.188;61.302;2024-03-08T04:24:49;-7.30;57.93
74376;HTU21D;62812;55.188;61.302;2024-03-08T04:27:15;-7.16;57.08
74376;HTU21D;62812;55.188;61.302;2024-03-08T04:29:41;-6.96;56.93
74376;HTU21D;62812;55.188;61.302;2024-03-08T04:32:09;-6.87;56.18
74376;HTU21D;62812;55.188;61.302;2024-03-08T04:34:35;-6.72;56.23
74376;HTU21D;62812;55.188;61.302;2024-03-08T04:37:02;-6.58;56.37
74376;HTU21D;62812;55.188;61.302;2024-03-08T04:39:32;-6.38;56.17
74376;HTU21D;62812;55.188;61.302;2024-03-08T04:42:00;-6.26;55.36
74376;HTU21D;62812;55.188;61.302;2024-03-08T04:44:27;-6.11;55.08
74376;HTU21D;62812;55.188;61.302;2024-03-08T04:46:53;-5.94;54.72
74376;HTU21D;62812;55.188;61.302;2024-03-08T04:49:19;-5.78;54.48
74376;HTU21D;62812;55.188;61.302;2024-03-08T04:51:48;-5.62;53.94
74376;HTU21D;62812;55.188;61.302;2024-03-08T04:54:14;-5.46;54.39
74376;HTU21D;62812;55.188;61.302;2024-03-08T04:56:42;-5.27;52.63
74376;HTU21D;62812;55.188;61.302;2024-03-08T04:59:09;-5.04;52.83
74376;HTU21D;62812;55.188;61.302;2024-03-08T05:01:35;-4.89;52.14
74376;HTU21D;62812;55.188;61.302;2024-03-08T05:04:05;-4.67;51.50
74376;HTU21D;62812;55.188;61.302;2024-03-08T05:06:32;-4.49;50.98
74376;HTU21D;62812;55.188;61.302;2024-03-08T05:08:59;-4.23;49.52
74376;HTU21D;62812;55.188;61.302;2024-03-08T05:11:26;-4.07;49.68
74376;HTU21D;62812;55.188;61.302;2024-03-08T05:13:54;-3.95;50.59
74376;HTU21D;62812;55.188;61.302;2024-03-08T05:16:21;-3.80;50.18
74376;HTU21D;62812;55.188;61.302;2024-03-08T05:18:51;-3.70;49.83
74376;HTU21D;62812;55.188;61.302;2024-03-08T05:21:17;-3.58;49.19
74376;HTU21D;62812;55.188;61.302;2024-03-08T05:23:46;-3.45;48.91
74376;HTU21D;62812;55.188;61.302;2024-03-08T05:26:13;-3.35;48.51
74376;HTU21D;62812;55.188;61.302;2024-03-08T05:28:40;-3.25;48.66
74376;HTU21D;62812;55.188;61.302;2024-03-08T05:31:08;-3.17;48.13
74376;HTU21D;62812;55.188;61.302;2024-03-08T05:33:35;-3.09;47.74
74376;HTU21D;62812;55.188;61.302;2024-03-08T05:36:02;-2.97;47.80
74376;HTU21D;62812;55.188;61.302;2024-03-08T05:38:29;-2.78;46.36
74376;HTU21D;62812;55.188;61.302;2024-03-08T05:40:55;-2.63;47.40
74376;HTU21D;62812;55.188;61.302;2024-03-08T05:43:22;-2.52;47.05
74376;HTU21D;62812;55.188;61.302;2024-03-08T05:45:49;-2.37;47.24
74376;HTU21D;62812;55.188;61.302;2024-03-08T05:48:17;-2.24;47.05
74376;HTU21D;62812;55.188;61.302;2024-03-08T05:50:45;-2.16;46.05
74376;HTU21D;62812;55.188;61.302;2024-03-08T05:53:12;-2.06;46.10
74376;HTU21D;62812;55.188;61.302;2024-03-08T05:55:39;-2.07;45.89
74376;HTU21D;62812;55.188;61.302;2024-03-08T05:58:06;-2.12;45.20
74376;HTU21D;62812;55.188;61.302;2024-03-08T06:00:37;-2.18;47.58
74376;HTU21D;62812;55.188;61.302;2024-03-08T06:03:04;-2.15;48.92
74376;HTU21D;62812;55.188;61.302;2024-03-08T06:05:34;-1.91;48.56
74376;HTU21D;62812;55.188;61.302;2024-03-08T06:08:01;-1.92;46.38
74376;HTU21D;62812;55.188;61.302;2024-03-08T06:10:27;-1.70;55.52
74376;HTU21D;62812;55.188;61.302;2024-03-08T06:12:54;-1.52;47.76
74376;HTU21D;62812;55.188;61.302;2024-03-08T06:15:21;-1.43;45.98
74376;HTU21D;62812;55.188;61.302;2024-03-08T06:17:50;-1.36;45.54
74376;HTU21D;62812;55.188;61.302;2024-03-08T06:20:19;-1.24;46.74
74376;HTU21D;62812;55.188;61.302;2024-03-08T06:22:47;-1.14;45.27
74376;HTU21D;62812;55.188;61.302;2024-03-08T06:25:14;-1.21;44.35
74376;HTU21D;62812;55.188;61.302;2024-03-08T06:27:42;-1.18;45.49
74376;HTU21D;62812;55.188;61.302;2024-03-08T06:30:15;-1.21;43.80
74376;HTU21D;62812;55.188;61.302;2024-03-08T06:32:42;-1.25;43.93
74376;HTU21D;62812;55.188;61.302;2024-03-08T06:35:09;-1.25;43.98
74376;HTU21D;62812;55.188;61.302;2024-03-08T06:37:36;-1.16;45.65
74376;HTU21D;62812;55.188;61.302;2024-03-08T06:40:06;-1.06;45.12
74376;HTU21D;62812;55.188;61.302;2024-03-08T06:42:34;-1.06;43.90
74376;HTU21D;62812;55.188;61.302;2024-03-08T06:45:01;-1.14;44.45
74376;HTU21D;62812;55.188;61.302;2024-03-08T06:47:31;-1.05;45.90
74376;HTU21D;62812;55.188;61.302;2024-03-08T06:49:58;-0.93;45.85
74376;HTU21D;62812;55.188;61.302;2024-03-08T06:52:26;-0.84;45.98
74376;HTU21D;62812;55.188;61.302;2024-03-08T06:54:52;-0.69;46.03
74376;HTU21D;62812;55.188;61.302;2024-03-08T06:57:23;-0.60;45.38
74376;HTU21D;62812;55.188;61.302;2024-03-08T07:13:16;-0.15;44.11
74376;HTU21D;62812;55.188;61.302;2024-03-08T07:15:52;-0.08;44.61
74376;HTU21D;62812;55.188;61.302;2024-03-08T07:18:21;-0.02;44.74
74376;HTU21D;62812;55.188;61.302;2024-03-08T07:25:09;0.24;43.87
74376;HTU21D;62812;55.188;61.302;2024-03-08T07:27:51;0.42;43.98
74376;HTU21D;62812;55.188;61.302;2024-03-08T07:30:26;0.50;44.25
74376;HTU21D;62812;55.188;61.302;2024-03-08T07:33:14;0.69;43.57
74376;HTU21D;62812;55.188;61.302;2024-03-08T07:35:44;0.82;43.32
74376;HTU21D;62812;55.188;61.302;2024-03-08T07:38:15;0.74;43.96
74376;HTU21D;62812;55.188;61.302;2024-03-08T07:41:03;0.77;44.19
74376;HTU21D;62812;55.188;61.302;2024-03-08T07:43:59;1.10;44.27
74376;HTU21D;62812;55.188;61.302;2024-03-08T07:46:31;1.17;42.24
74376;HTU21D;62812;55.188;61.302;2024-03-08T07:48:59;1.18;43.93
74376;HTU21D;62812;55.188;61.302;2024-03-08T07:51:28;1.20;43.58
74376;HTU21D;62812;55.188;61.302;2024-03-08T07:53:55;1.12;43.96
74376;HTU21D;62812;55.188;61.302;2024-03-08T07:56:24;1.19;44.15
74376;HTU21D;62812;55.188;61.302;2024-03-08T07:58:52;1.20;43.71
74376;HTU21D;62812;55.188;61.302;2024-03-08T08:01:19;1.13;44.16
74376;HTU21D;62812;55.188;61.302;2024-03-08T08:03:56;1.13;44.43
74376;HTU21D;62812;55.188;61.302;2024-03-08T08:06:28;1.29;44.93
74376;HTU21D;62812;55.188;61.302;2024-03-08T08:09:00;1.43;44.29
74376;HTU21D;62812;55.188;61.302;2024-03-08T08:11:27;1.50;43.35
74376;HTU21D;62812;55.188;61.302;2024-03-08T08:14:02;1.67;43.19
74376;HTU21D;62812;55.188;61.302;2024-03-08T08:16:34;1.53;43.71
74376;HTU21D;62812;55.188;61.302;2024-03-08T08:19:06;1.56;43.42
74376;HTU21D;62812;55.188;61.302;2024-03-08T08:21:41;1.48;43.45
74376;HTU21D;62812;55.188;61.302;2024-03-08T08:24:44;1.37;44.29
74376;HTU21D;62812;55.188;61.302;2024-03-08T08:27:36;1.50;43.58
74376;HTU21D;62812;55.188;61.302;2024-03-08T08:30:36;1.42;43.48
74376;HTU21D;62812;55.188;61.302;2024-03-08T08:33:36;1.68;44.75
74376;HTU21D;62812;55.188;61.302;2024-03-08T08:40:16;1.83;43.29
74376;HTU21D;62812;55.188;61.302;2024-03-08T08:47:40;1.50;43.61
74376;HTU21D;62812;55.188;61.302;2024-03-08T08:50:25;1.36;43.71
74376;HTU21D;62812;55.188;61.302;2024-03-08T08:53:39;1.42;43.55
74376;HTU21D;62812;55.188;61.302;2024-03-08T08:56:25;1.51;43.71
74376;HTU21D;62812;55.188;61.302;2024-03-08T08:59:08;1.27;43.58
74376;HTU21D;62812;55.188;61.302;2024-03-08T09:02:03;1.21;44.09
74376;HTU21D;62812;55.188;61.302;2024-03-08T09:05:08;1.02;44.53
74376;HTU21D;62812;55.188;61.302;2024-03-08T09:08:09;0.98;46.28
74376;HTU21D;62812;55.188;61.302;2024-03-08T09:11:22;1.14;44.70
74376;HTU21D;62812;55.188;61.302;2024-03-08T09:13:56;1.24;44.61
74376;HTU21D;62812;55.188;61.302;2024-03-08T09:16:32;1.24;44.94
74376;HTU21D;62812;55.188;61.302;2024-03-08T09:19:31;1.10;45.10
74376;HTU21D;62812;55.188;61.302;2024-03-08T09:23:49;1.10;44.56
74376;HTU21D;62812;55.188;61.302;2024-03-08T09:35:19;1.13;43.96
74376;HTU21D;62812;55.188;61.302;2024-03-08T09:37:46;1.11;44.46
74376;HTU21D;62812;55.188;61.302;2024-03-08T09:40:30;1.08;43.90
74376;HTU21D;62812;55.188;61.302;2024-03-08T09:43:13;1.05;45.10
74376;HTU21D;62812;55.188;61.302;2024-03-08T09:45:58;1.05;44.09
74376;HTU21D;62812;55.188;61.302;2024-03-08T09:51:56;1.03;44.39
74376;HTU21D;62812;55.188;61.302;2024-03-08T09:54:23;0.95;45.59
74376;HTU21D;62812;55.188;61.302;2024-03-08T09:56:53;0.99;44.63
74376;HTU21D;62812;55.188;61.302;2024-03-08T09:59:22;0.87;43.87
74376;HTU21D;62812;55.188;61.302;2024-03-08T10:01:49;0.80;44.36
74376;HTU21D;62812;55.188;61.302;2024-03-08T10:04:16;0.72;45.16
74376;HTU21D;62812;55.188;61.302;2024-03-08T10:06:45;0.72;43.79
74376;HTU21D;62812;55.188;61.302;2024-03-08T10:12:44;0.79;45.14
74376;HTU21D;62812;55.188;61.302;2024-03-08T10:15:15;0.86;45.11
74376;HTU21D;62812;55.188;61.302;2024-03-08T10:17:57;0.82;44.42
74376;HTU21D;62812;55.188;61.302;2024-03-08T10:20:25;0.88;44.54
74376;HTU21D;62812;55.188;61.302;2024-03-08T10:22:55;0.75;44.46
74376;HTU21D;62812;55.188;61.302;2024-03-08T10:25:30;0.68;44.29
74376;HTU21D;62812;55.188;61.302;2024-03-08T10:27:59;0.73;44.32
74376;HTU21D;62812;55.188;61.302;2024-03-08T10:30:51;0.61;44.50
74376;HTU21D;62812;55.188;61.302;2024-03-08T10:33:23;0.78;45.09
74376;HTU21D;62812;55.188;61.302;2024-03-08T10:35:53;0.77;45.52
74376;HTU21D;62812;55.188;61.302;2024-03-08T10:38:26;0.74;44.14
74376;HTU21D;62812;55.188;61.302;2024-03-08T10:40:59;0.80;43.46
74376;HTU21D;62812;55.188;61.302;2024-03-08T10:43:33;0.65;45.80
74376;HTU21D;62812;55.188;61.302;2024-03-08T10:46:41;0.72;44.12
74376;HTU21D;62812;55.188;61.302;2024-03-08T10:49:16;0.58;44.01
74376;HTU21D;62812;55.188;61.302;2024-03-08T10:51:47;0.38;43.58
74376;HTU21D;62812;55.188;61.302;2024-03-08T10:54:19;0.31;47.70
74376;HTU21D;62812;55.188;61.302;2024-03-08T10:56:48;0.24;44.89
74376;HTU21D;62812;55.188;61.302;2024-03-08T10:59:19;0.37;45.94
74376;HTU21D;62812;55.188;61.302;2024-03-08T11:01:57;0.42;46.48
74376;HTU21D;62812;55.188;61.302;2024-03-08T11:04:26;0.48;46.23
74376;HTU21D;62812;55.188;61.302;2024-03-08T11:07:00;0.60;44.08
74376;HTU21D;62812;55.188;61.302;2024-03-08T11:09:34;0.48;44.24
74376;HTU21D;62812;55.188;61.302;2024-03-08T11:12:22;0.39;45.06
74376;HTU21D;62812;55.188;61.302;2024-03-08T11:14:53;0.43;45.47
74376;HTU21D;62812;55.188;61.302;2024-03-08T11:17:40;0.48;43.94
74376;HTU21D;62812;55.188;61.302;2024-03-08T11:20:10;0.43;46.45
74376;HTU21D;62812;55.188;61.302;2024-03-08T11:22:42;0.40;44.89
74376;HTU21D;62812;55.188;61.302;2024-03-08T11:25:33;0.44;45.61
74376;HTU21D;62812;55.188;61.302;2024-03-08T11:28:11;0.39;44.19
74376;HTU21D;62812;55.188;61.302;2024-03-08T11:31:23;0.40;45.57
74376;HTU21D;62812;55.188;61.302;2024-03-08T11:33:54;0.33;44.05
74376;HTU21D;62812;55.188;61.302;2024-03-08T11:36:23;0.25;43.62
74376;HTU21D;62812;55.188;61.302;2024-03-08T11:38:56;0.32;44.98
74376;HTU21D;62812;55.188;61.302;2024-03-08T11:41:24;0.22;44.36
74376;HTU21D;62812;55.188;61.302;2024-03-08T11:44:02;0.13;44.56
74376;HTU21D;62812;55.188;61.302;2024-03-08T11:46:33;0.04;44.53
74376;HTU21D;62812;55.188;61.302;2024-03-08T11:49:00;0.04;46.36
74376;HTU21D;62812;55.188;61.302;2024-03-08T11:51:30;0.04;46.01
74376;HTU21D;62812;55.188;61.302;2024-03-08T11:53:59;0.02;45.21
74376;HTU21D;62812;55.188;61.302;2024-03-08T11:56:28;-0.10;45.59
74376;HTU21D;62812;55.188;61.302;2024-03-08T11:58:59;-0.08;45.36
74376;HTU21D;62812;55.188;61.302;2024-03-08T12:01:33;-0.10;45.03
74376;HTU21D;62812;55.188;61.302;2024-03-08T12:04:00;-0.23;45.86
74376;HTU21D;62812;55.188;61.302;2024-03-08T12:06:36;-0.22;47.89
74376;HTU21D;62812;55.188;61.302;2024-03-08T12:09:08;-0.24;47.56
74376;HTU21D;62812;55.188;61.302;2024-03-08T12:11:36;-0.12;46.70
74376;HTU21D;62812;55.188;61.302;2024-03-08T12:14:06;-0.10;45.76
74376;HTU21D;62812;55.188;61.302;2024-03-08T12:16:38;-0.09;47.74
74376;HTU21D;62812;55.188;61.302;2024-03-08T12:19:05;-0.13;45.77
74376;HTU21D;62812;55.188;61.302;2024-03-08T12:21:35;-0.23;45.25
74376;HTU21D;62812;55.188;61.302;2024-03-08T12:24:04;-0.27;45.66
74376;HTU21D;62812;55.188;61.302;2024-03-08T12:26:31;-0.32;46.48
74376;HTU21D;62812;55.188;61.302;2024-03-08T12:29:17;-0.27;46.39
74376;HTU21D;62812;55.188;61.302;2024-03-08T12:31:49;-0.28;45.83
74376;HTU21D;62812;55.188;61.302;2024-03-08T12:34:17;-0.29;46.20
74376;HTU21D;62812;55.188;61.302;2024-03-08T12:36:45;-0.27;48.09
74376;HTU21D;62812;55.188;61.302;2024-03-08T12:39:17;-0.25;45.92
74376;HTU21D;62812;55.188;61.302;2024-03-08T12:41:57;-0.32;45.38
74376;HTU21D;62812;55.188;61.302;2024-03-08T12:47:47;-0.38;45.26
74376;HTU21D;62812;55.188;61.302;2024-03-08T12:50:16;-0.41;45.19
74376;HTU21D;62812;55.188;61.302;2024-03-08T12:52:46;-0.42;44.06
74376;HTU21D;62812;55.188;61.302;2024-03-08T12:55:19;-0.47;45.41
74376;HTU21D;62812;55.188;61.302;2024-03-08T12:57:46;-0.57;45.19
74376;HTU21D;62812;55.188;61.302;2024-03-08T13:00:15;-0.66;44.64
74376;HTU21D;62812;55.188;61.302;2024-03-08T13:02:47;-0.73;45.27
74376;HTU21D;62812;55.188;61.302;2024-03-08T13:05:19;-0.81;45.35
74376;HTU21D;62812;55.188;61.302;2024-03-08T13:07:53;-0.89;45.81
74376;HTU21D;62812;55.188;61.302;2024-03-08T13:10:30;-0.90;46.41
74376;HTU21D;62812;55.188;61.302;2024-03-08T13:12:57;-0.93;46.31
74376;HTU21D;62812;55.188;61.302;2024-03-08T13:15:24;-0.93;46.32
74376;HTU21D;62812;55.188;61.302;2024-03-08T13:18:09;-0.99;46.27
74376;HTU21D;62812;55.188;61.302;2024-03-08T13:20:40;-1.06;47.15
74376;HTU21D;62812;55.188;61.302;2024-03-08T13:23:24;-1.08;47.14
74376;HTU21D;62812;55.188;61.302;2024-03-08T13:25:52;-1.14;46.27
74376;HTU21D;62812;55.188;61.302;2024-03-08T13:28:27;-1.14;48.49
74376;HTU21D;62812;55.188;61.302;2024-03-08T13:31:05;-1.09;48.45
74376;HTU21D;62812;55.188;61.302;2024-03-08T13:33:45;-1.05;47.90
74376;HTU21D;62812;55.188;61.302;2024-03-08T13:36:16;-1.17;45.39
74376;HTU21D;62812;55.188;61.302;2024-03-08T13:39:18;-1.26;47.01
74376;HTU21D;62812;55.188;61.302;2024-03-08T13:42:01;-1.43;46.59
74376;HTU21D;62812;55.188;61.302;2024-03-08T13:44:43;-1.53;47.32
74376;HTU21D;62812;55.188;61.302;2024-03-08T13:47:10;-1.59;47.68
74376;HTU21D;62812;55.188;61.302;2024-03-08T13:49:39;-1.64;48.12
74376;HTU21D;62812;55.188;61.302;2024-03-08T13:52:06;-1.72;47.04
74376;HTU21D;62812;55.188;61.302;2024-03-08T13:54:35;-1.78;47.62
74376;HTU21D;62812;55.188;61.302;2024-03-08T13:57:02;-1.82;47.15
74376;HTU21D;62812;55.188;61.302;2024-03-08T13:59:30;-1.82;47.15
74376;HTU21D;62812;55.188;61.302;2024-03-08T14:01:59;-1.84;49.50
74376;HTU21D;62812;55.188;61.302;2024-03-08T14:11:47;-1.95;47.56
74376;HTU21D;62812;55.188;61.302;2024-03-08T14:14:13;-2.04;48.54
74376;HTU21D;62812;55.188;61.302;2024-03-08T14:16:40;-2.12;48.79
74376;HTU21D;62812;55.188;61.302;2024-03-08T14:19:07;-2.23;48.59
74376;HTU21D;62812;55.188;61.302;2024-03-08T14:21:36;-2.33;49.44
74376;HTU21D;62812;55.188;61.302;2024-03-08T14:24:06;-2.42;49.43
74376;HTU21D;62812;55.188;61.302;2024-03-08T14:29:49;-2.54;50.21
74376;HTU21D;62812;55.188;61.302;2024-03-08T14:32:22;-2.53;49.91
74376;HTU21D;62812;55.188;61.302;2024-03-08T14:35:08;-2.53;49.39
74376;HTU21D;62812;55.188;61.302;2024-03-08T14:37:41;-2.48;50.13
74376;HTU21D;62812;55.188;61.302;2024-03-08T14:40:16;-2.47;49.01
74376;HTU21D;62812;55.188;61.302;2024-03-08T14:43:07;-2.52;49.89
74376;HTU21D;62812;55.188;61.302;2024-03-08T15:22:14;-3.72;52.05
74376;HTU21D;62812;55.188;61.302;2024-03-08T15:25:04;-3.79;51.51
74376;HTU21D;62812;55.188;61.302;2024-03-08T15:28:25;-3.86;51.91
74376;HTU21D;62812;55.188;61.302;2024-03-08T15:32:18;-3.94;52.75
74376;HTU21D;62812;55.188;61.302;2024-03-08T15:35:16;-4.02;52.42
74376;HTU21D;62812;55.188;61.302;2024-03-08T15:37:47;-4.07;52.66
74376;HTU21D;62812;55.188;61.302;2024-03-08T15:40:23;-4.06;52.98
74376;HTU21D;62812;55.188;61.302;2024-03-08T15:42:59;-3.98;52.02
74376;HTU21D;62812;55.188;61.302;2024-03-08T15:45:49;-4.01;52.27
74376;HTU21D;62812;55.188;61.302;2024-03-08T15:48:33;-4.04;52.65
74376;HTU21D;62812;55.188;61.302;2024-03-08T15:51:18;-3.99;52.67
74376;HTU21D;62812;55.188;61.302;2024-03-08T15:54:15;-4.04;52.37
74376;HTU21D;62812;55.188;61.302;2024-03-08T15:57:36;-4.08;52.64
74376;HTU21D;62812;55.188;61.302;2024-03-08T16:00:07;-4.12;52.92
74376;HTU21D;62812;55.188;61.302;2024-03-08T16:02:44;-4.17;53.28
74376;HTU21D;62812;55.188;61.302;2024-03-08T16:05:26;-4.27;53.27
74376;HTU21D;62812;55.188;61.302;2024-03-08T16:08:19;-4.27;53.65
74376;HTU21D;62812;55.188;61.302;2024-03-08T16:10:50;-4.31;53.93
74376;HTU21D;62812;55.188;61.302;2024-03-08T16:13:21;-4.34;53.88
74376;HTU21D;62812;55.188;61.302;2024-03-08T16:15:49;-4.35;54.33
74376;HTU21D;62812;55.188;61.302;2024-03-08T16:18:17;-4.41;54.59
74376;HTU21D;62812;55.188;61.302;2024-03-08T16:21:15;-4.42;54.52
74376;HTU21D;62812;55.188;61.302;2024-03-08T16:24:55;-4.41;54.33
74376;HTU21D;62812;55.188;61.302;2024-03-08T16:27:23;-4.45;54.59
74376;HTU21D;62812;55.188;61.302;2024-03-08T16:29:50;-4.50;54.13
74376;HTU21D;62812;55.188;61.302;2024-03-08T16:32:18;-4.55;54.69
74376;HTU21D;62812;55.188;61.302;2024-03-08T16:34:47;-4.59;54.87
74376;HTU21D;62812;55.188;61.302;2024-03-08T16:37:14;-4.59;55.35
74376;HTU21D;62812;55.188;61.302;2024-03-08T16:39:42;-4.64;55.39
74376;HTU21D;62812;55.188;61.302;2024-03-08T16:42:10;-4.67;55.61
74376;HTU21D;62812;55.188;61.302;2024-03-08T16:44:37;-4.69;55.67
74376;HTU21D;62812;55.188;61.302;2024-03-08T16:47:13;-4.76;55.94
74376;HTU21D;62812;55.188;61.302;2024-03-08T16:49:41;-4.82;56.02
74376;HTU21D;62812;55.188;61.302;2024-03-08T16:52:10;-4.87;56.27
74376;HTU21D;62812;55.188;61.302;2024-03-08T16:54:37;-4.94;56.74
74376;HTU21D;62812;55.188;61.302;2024-03-08T16:57:05;-4.97;56.27
74376;HTU21D;62812;55.188;61.302;2024-03-08T16:59:37;-5.01;56.58
74376;HTU21D;62812;55.188;61.302;2024-03-08T17:02:35;-5.03;56.97
74376;HTU21D;62812;55.188;61.302;2024-03-08T17:08:57;-5.12;56.67
74376;HTU21D;62812;55.188;61.302;2024-03-08T17:11:54;-5.12;57.34
74376;HTU21D;62812;55.188;61.302;2024-03-08T17:14:21;-5.12;56.99
74376;HTU21D;62812;55.188;61.302;2024-03-08T17:16:52;-5.13;57.37